sensor_id;sensor_type;location;lat;lon;timestamp;P1;durP1;ratioP1;P2;durP2;ratioP2
54545;SDS011;40444;45.184;9.850;2023-04-01T00:01:17;23.50;;;16.50;;
54545;SDS011;40444;45.184;9.850;2023-04-01T00:03:46;23.73;;;16.00;;
54545;SDS011;40444;45.184;9.850;2023-04-01T00:06:15;26.17;;;14.35;;
54545;SDS011;40444;45.184;9.850;2023-04-01T00:08:45;22.30;;;14.75;;
54545;SDS011;40444;45.184;9.850;2023-04-01T00:11:14;19.38;;;14.60;;
54545;SDS011;40444;45.184;9.850;2023-04-01T00:13:47;21.80;;;13.90;;
54545;SDS011;40444;45.184;9.850;2023-04-01T00:16:15;20.45;;;14.13;;
54545;SDS011;40444;45.184;9.850;2023-04-01T00:18:49;23.58;;;14.27;;
54545;SDS011;40444;45.184;9.850;2023-04-01T00:21:19;21.42;;;14.40;;
54545;SDS011;40444;45.184;9.850;2023-04-01T00:23:51;17.88;;;13.52;;
54545;SDS011;40444;45.184;9.850;2023-04-01T00:26:20;21.25;;;13.45;;
54545;SDS011;40444;45.184;9.850;2023-04-01T00:28:49;20.02;;;13.18;;
54545;SDS011;40444;45.184;9.850;2023-04-01T00:31:19;19.83;;;12.70;;
54545;SDS011;40444;45.184;9.850;2023-04-01T00:33:48;19.90;;;12.27;;
54545;SDS011;40444;45.184;9.850;2023-04-01T00:36:18;15.25;;;11.27;;
54545;SDS011;40444;45.184;9.850;2023-04-01T00:38:49;19.00;;;10.18;;
54545;SDS011;40444;45.184;9.850;2023-04-01T00:41:18;12.00;;;10.35;;
54545;SDS011;40444;45.184;9.850;2023-04-01T00:43:50;13.93;;;9.50;;
54545;SDS011;40444;45.184;9.850;2023-04-01T00:46:19;19.92;;;10.60;;
54545;SDS011;40444;45.184;9.850;2023-04-01T00:48:51;13.80;;;10.27;;
54545;SDS011;40444;45.184;9.850;2023-04-01T00:51:25;14.43;;;10.15;;
54545;SDS011;40444;45.184;9.850;2023-04-01T00:53:56;15.35;;;10.48;;
54545;SDS011;40444;45.184;9.850;2023-04-01T00:56:30;17.35;;;10.30;;
54545;SDS011;40444;45.184;9.850;2023-04-01T00:59:06;12.40;;;9.57;;
54545;SDS011;40444;45.184;9.850;2023-04-01T01:01:39;18.05;;;10.20;;
54545;SDS011;40444;45.184;9.850;2023-04-01T01:04:20;12.90;;;10.18;;
54545;SDS011;40444;45.184;9.850;2023-04-01T01:06:56;15.70;;;10.95;;
54545;SDS011;40444;45.184;9.850;2023-04-01T01:18:16;18.55;;;10.32;;
54545;SDS011;40444;45.184;9.850;2023-04-01T01:31:48;19.70;;;12.50;;
54545;SDS011;40444;45.184;9.850;2023-04-01T01:37:08;18.60;;;14.35;;
54545;SDS011;40444;45.184;9.850;2023-04-01T01:39:43;22.63;;;15.65;;
54545;SDS011;40444;45.184;9.850;2023-04-01T01:42:17;23.17;;;16.58;;
54545;SDS011;40444;45.184;9.850;2023-04-01T01:44:48;27.92;;;17.95;;
54545;SDS011;40444;45.184;9.850;2023-04-01T01:47:20;28.45;;;18.40;;
54545;SDS011;40444;45.184;9.850;2023-04-01T01:49:51;26.38;;;18.92;;
54545;SDS011;40444;45.184;9.850;2023-04-01T01:52:22;31.52;;;22.20;;
54545;SDS011;40444;45.184;9.850;2023-04-01T01:54:53;31.73;;;22.15;;
54545;SDS011;40444;45.184;9.850;2023-04-01T01:57:27;35.05;;;22.38;;
54545;SDS011;40444;45.184;9.850;2023-04-01T02:00:03;33.80;;;22.33;;
54545;SDS011;40444;45.184;9.850;2023-04-01T02:02:44;37.25;;;22.92;;
54545;SDS011;40444;45.184;9.850;2023-04-01T02:05:16;33.15;;;23.85;;
54545;SDS011;40444;45.184;9.850;2023-04-01T02:08:06;32.60;;;23.40;;
54545;SDS011;40444;45.184;9.850;2023-04-01T02:10:39;35.88;;;23.52;;
54545;SDS011;40444;45.184;9.850;2023-04-01T02:13:15;31.30;;;22.88;;
54545;SDS011;40444;45.184;9.850;2023-04-01T02:16:11;36.97;;;23.35;;
54545;SDS011;40444;45.184;9.850;2023-04-01T02:18:44;34.55;;;23.13;;
54545;SDS011;40444;45.184;9.850;2023-04-01T02:21:17;37.80;;;23.63;;
54545;SDS011;40444;45.184;9.850;2023-04-01T02:23:49;34.38;;;22.98;;
54545;SDS011;40444;45.184;9.850;2023-04-01T02:26:20;32.63;;;23.25;;
54545;SDS011;40444;45.184;9.850;2023-04-01T02:28:49;34.78;;;23.65;;
54545;SDS011;40444;45.184;9.850;2023-04-01T02:31:20;34.30;;;24.10;;
54545;SDS011;40444;45.184;9.850;2023-04-01T02:33:51;31.13;;;22.30;;
54545;SDS011;40444;45.184;9.850;2023-04-01T02:36:21;31.55;;;22.83;;
54545;SDS011;40444;45.184;9.850;2023-04-01T02:38:50;37.80;;;25.67;;
54545;SDS011;40444;45.184;9.850;2023-04-01T02:41:20;35.00;;;23.80;;
54545;SDS011;40444;45.184;9.850;2023-04-01T02:43:48;32.13;;;23.42;;
54545;SDS011;40444;45.184;9.850;2023-04-01T02:46:17;33.97;;;24.30;;
54545;SDS011;40444;45.184;9.850;2023-04-01T02:48:45;36.95;;;24.13;;
54545;SDS011;40444;45.184;9.850;2023-04-01T02:51:13;37.45;;;24.98;;
54545;SDS011;40444;45.184;9.850;2023-04-01T02:53:44;39.97;;;25.60;;
54545;SDS011;40444;45.184;9.850;2023-04-01T02:56:13;39.45;;;26.40;;
54545;SDS011;40444;45.184;9.850;2023-04-01T02:58:41;41.72;;;25.67;;
54545;SDS011;40444;45.184;9.850;2023-04-01T03:01:10;32.92;;;24.40;;
54545;SDS011;40444;45.184;9.850;2023-04-01T03:03:38;35.88;;;25.23;;
54545;SDS011;40444;45.184;9.850;2023-04-01T03:06:08;34.80;;;24.13;;
54545;SDS011;40444;45.184;9.850;2023-04-01T03:08:39;39.65;;;23.63;;
54545;SDS011;40444;45.184;9.850;2023-04-01T03:11:08;35.42;;;23.10;;
54545;SDS011;40444;45.184;9.850;2023-04-01T03:13:38;31.23;;;22.00;;
54545;SDS011;40444;45.184;9.850;2023-04-01T03:16:06;34.92;;;21.17;;
54545;SDS011;40444;45.184;9.850;2023-04-01T03:18:35;31.08;;;21.52;;
54545;SDS011;40444;45.184;9.850;2023-04-01T03:21:13;29.00;;;19.95;;
54545;SDS011;40444;45.184;9.850;2023-04-01T03:23:43;27.23;;;19.17;;
54545;SDS011;40444;45.184;9.850;2023-04-01T03:26:12;32.38;;;19.67;;
54545;SDS011;40444;45.184;9.850;2023-04-01T03:28:42;29.13;;;19.95;;
54545;SDS011;40444;45.184;9.850;2023-04-01T03:31:11;25.73;;;19.30;;
54545;SDS011;40444;45.184;9.850;2023-04-01T03:33:47;25.95;;;19.05;;
54545;SDS011;40444;45.184;9.850;2023-04-01T03:36:15;24.23;;;17.75;;
54545;SDS011;40444;45.184;9.850;2023-04-01T03:38:44;26.92;;;17.55;;
54545;SDS011;40444;45.184;9.850;2023-04-01T03:41:17;23.63;;;16.92;;
54545;SDS011;40444;45.184;9.850;2023-04-01T03:43:46;21.83;;;17.38;;
54545;SDS011;40444;45.184;9.850;2023-04-01T03:46:18;26.70;;;16.63;;
54545;SDS011;40444;45.184;9.850;2023-04-01T03:48:48;26.05;;;16.05;;
54545;SDS011;40444;45.184;9.850;2023-04-01T03:51:17;23.55;;;15.40;;
54545;SDS011;40444;45.184;9.850;2023-04-01T03:53:48;20.95;;;14.77;;
54545;SDS011;40444;45.184;9.850;2023-04-01T03:56:17;20.20;;;14.10;;
54545;SDS011;40444;45.184;9.850;2023-04-01T03:58:45;18.30;;;13.02;;
54545;SDS011;40444;45.184;9.850;2023-04-01T04:01:15;17.90;;;13.13;;
54545;SDS011;40444;45.184;9.850;2023-04-01T04:03:47;16.15;;;12.68;;
54545;SDS011;40444;45.184;9.850;2023-04-01T04:06:18;17.60;;;12.40;;
54545;SDS011;40444;45.184;9.850;2023-04-01T04:08:48;21.20;;;14.10;;
54545;SDS011;40444;45.184;9.850;2023-04-01T04:11:17;21.92;;;15.10;;
54545;SDS011;40444;45.184;9.850;2023-04-01T04:13:48;22.55;;;15.75;;
54545;SDS011;40444;45.184;9.850;2023-04-01T04:16:16;18.67;;;14.77;;
54545;SDS011;40444;45.184;9.850;2023-04-01T04:18:51;24.30;;;16.33;;
54545;SDS011;40444;45.184;9.850;2023-04-01T04:21:20;22.40;;;16.65;;
54545;SDS011;40444;45.184;9.850;2023-04-01T04:23:48;23.23;;;16.95;;
54545;SDS011;40444;45.184;9.850;2023-04-01T04:26:18;23.48;;;15.82;;
54545;SDS011;40444;45.184;9.850;2023-04-01T04:28:56;22.52;;;16.50;;
54545;SDS011;40444;45.184;9.850;2023-04-01T04:31:25;24.65;;;16.42;;
54545;SDS011;40444;45.184;9.850;2023-04-01T04:33:58;21.23;;;15.80;;
54545;SDS011;40444;45.184;9.850;2023-04-01T04:36:32;16.92;;;13.63;;
54545;SDS011;40444;45.184;9.850;2023-04-01T04:39:01;16.27;;;12.05;;
54545;SDS011;40444;45.184;9.850;2023-04-01T04:41:31;15.00;;;11.80;;
54545;SDS011;40444;45.184;9.850;2023-04-01T04:44:03;16.15;;;11.57;;
54545;SDS011;40444;45.184;9.850;2023-04-01T04:46:33;16.02;;;12.15;;
54545;SDS011;40444;45.184;9.850;2023-04-01T04:49:11;20.85;;;12.32;;
54545;SDS011;40444;45.184;9.850;2023-04-01T04:51:40;15.35;;;11.25;;
54545;SDS011;40444;45.184;9.850;2023-04-01T04:54:09;15.60;;;12.57;;
54545;SDS011;40444;45.184;9.850;2023-04-01T04:56:51;18.77;;;12.85;;
54545;SDS011;40444;45.184;9.850;2023-04-01T04:59:22;17.70;;;13.68;;
54545;SDS011;40444;45.184;9.850;2023-04-01T05:02:08;21.85;;;13.38;;
54545;SDS011;40444;45.184;9.850;2023-04-01T05:04:37;18.80;;;13.70;;
54545;SDS011;40444;45.184;9.850;2023-04-01T05:07:09;16.45;;;12.75;;
54545;SDS011;40444;45.184;9.850;2023-04-01T05:09:38;21.52;;;14.02;;
54545;SDS011;40444;45.184;9.850;2023-04-01T05:12:07;17.92;;;12.93;;
54545;SDS011;40444;45.184;9.850;2023-04-01T05:15:08;21.17;;;14.48;;
54545;SDS011;40444;45.184;9.850;2023-04-01T05:17:38;24.63;;;17.00;;
54545;SDS011;40444;45.184;9.850;2023-04-01T05:20:07;22.15;;;15.57;;
54545;SDS011;40444;45.184;9.850;2023-04-01T05:22:36;19.05;;;14.80;;
54545;SDS011;40444;45.184;9.850;2023-04-01T05:25:05;21.15;;;14.10;;
54545;SDS011;40444;45.184;9.850;2023-04-01T05:27:33;19.15;;;15.60;;
54545;SDS011;40444;45.184;9.850;2023-04-01T05:30:02;18.05;;;14.60;;
54545;SDS011;40444;45.184;9.850;2023-04-01T05:32:41;17.75;;;13.30;;
54545;SDS011;40444;45.184;9.850;2023-04-01T05:35:11;17.95;;;13.85;;
54545;SDS011;40444;45.184;9.850;2023-04-01T05:37:40;19.25;;;13.55;;
54545;SDS011;40444;45.184;9.850;2023-04-01T05:40:08;19.33;;;13.90;;
54545;SDS011;40444;45.184;9.850;2023-04-01T05:42:37;21.48;;;13.90;;
54545;SDS011;40444;45.184;9.850;2023-04-01T05:45:06;18.02;;;14.05;;
54545;SDS011;40444;45.184;9.850;2023-04-01T05:48:00;20.30;;;14.18;;
54545;SDS011;40444;45.184;9.850;2023-04-01T05:50:35;20.20;;;13.82;;
54545;SDS011;40444;45.184;9.850;2023-04-01T05:53:05;20.63;;;14.07;;
54545;SDS011;40444;45.184;9.850;2023-04-01T05:55:34;21.50;;;14.65;;
54545;SDS011;40444;45.184;9.850;2023-04-01T05:58:04;21.73;;;13.85;;
54545;SDS011;40444;45.184;9.850;2023-04-01T06:00:35;20.48;;;14.75;;
54545;SDS011;40444;45.184;9.850;2023-04-01T06:03:04;17.60;;;13.93;;
54545;SDS011;40444;45.184;9.850;2023-04-01T06:05:40;19.45;;;13.88;;
54545;SDS011;40444;45.184;9.850;2023-04-01T06:21:58;14.32;;;12.23;;
54545;SDS011;40444;45.184;9.850;2023-04-01T06:24:57;16.35;;;11.95;;
54545;SDS011;40444;45.184;9.850;2023-04-01T06:30:24;15.73;;;12.40;;
54545;SDS011;40444;45.184;9.850;2023-04-01T19:00:12;5.85;;;2.25;;
54545;SDS011;40444;45.184;9.850;2023-04-01T19:02:50;4.38;;;1.70;;
54545;SDS011;40444;45.184;9.850;2023-04-01T19:08:16;4.28;;;1.33;;
54545;SDS011;40444;45.184;9.850;2023-04-01T19:19:26;6.95;;;1.10;;
54545;SDS011;40444;45.184;9.850;2023-04-01T19:21:58;5.90;;;1.15;;
54545;SDS011;40444;45.184;9.850;2023-04-01T19:24:53;1.90;;;0.93;;
54545;SDS011;40444;45.184;9.850;2023-04-01T19:27:50;3.15;;;1.20;;
54545;SDS011;40444;45.184;9.850;2023-04-01T19:33:22;4.40;;;1.52;;
54545;SDS011;40444;45.184;9.850;2023-04-01T19:41:36;3.08;;;1.38;;
54545;SDS011;40444;45.184;9.850;2023-04-01T19:53:38;2.58;;;1.30;;
54545;SDS011;40444;45.184;9.850;2023-04-01T19:56:31;4.22;;;2.20;;
54545;SDS011;40444;45.184;9.850;2023-04-01T19:59:18;4.00;;;2.70;;
54545;SDS011;40444;45.184;9.850;2023-04-01T20:12:47;9.43;;;4.38;;
54545;SDS011;40444;45.184;9.850;2023-04-01T20:15:31;6.60;;;4.00;;
54545;SDS011;40444;45.184;9.850;2023-04-01T20:18:02;8.13;;;3.58;;
54545;SDS011;40444;45.184;9.850;2023-04-01T20:20:34;5.45;;;2.42;;
54545;SDS011;40444;45.184;9.850;2023-04-01T20:23:11;9.15;;;2.85;;
54545;SDS011;40444;45.184;9.850;2023-04-01T20:26:02;10.18;;;2.78;;
54545;SDS011;40444;45.184;9.850;2023-04-01T20:28:48;6.15;;;2.05;;
54545;SDS011;40444;45.184;9.850;2023-04-01T20:32:10;5.68;;;1.90;;
54545;SDS011;40444;45.184;9.850;2023-04-01T20:40:46;9.18;;;2.55;;
54545;SDS011;40444;45.184;9.850;2023-04-01T20:52:02;6.30;;;1.35;;
54545;SDS011;40444;45.184;9.850;2023-04-01T21:17:22;13.85;;;3.38;;
54545;SDS011;40444;45.184;9.850;2023-04-01T21:20:12;7.88;;;1.90;;
54545;SDS011;40444;45.184;9.850;2023-04-01T21:22:49;4.40;;;1.48;;
54545;SDS011;40444;45.184;9.850;2023-04-01T21:25:21;8.55;;;1.70;;
54545;SDS011;40444;45.184;9.850;2023-04-01T21:34:16;6.30;;;1.75;;
54545;SDS011;40444;45.184;9.850;2023-04-01T21:39:58;4.05;;;1.30;;
54545;SDS011;40444;45.184;9.850;2023-04-01T21:42:52;4.20;;;1.58;;
54545;SDS011;40444;45.184;9.850;2023-04-01T22:02:55;7.57;;;2.15;;
54545;SDS011;40444;45.184;9.850;2023-04-01T22:11:16;48.20;;;7.25;;
54545;SDS011;40444;45.184;9.850;2023-04-01T22:13:54;15.18;;;3.13;;
54545;SDS011;40444;45.184;9.850;2023-04-01T22:25:02;1.80;;;1.10;;
54545;SDS011;40444;45.184;9.850;2023-04-01T22:27:44;3.33;;;1.33;;
54545;SDS011;40444;45.184;9.850;2023-04-01T22:30:24;2.15;;;1.30;;
54545;SDS011;40444;45.184;9.850;2023-04-01T22:33:06;3.55;;;1.33;;
54545;SDS011;40444;45.184;9.850;2023-04-01T22:41:02;3.08;;;1.60;;
54545;SDS011;40444;45.184;9.850;2023-04-01T22:44:14;2.47;;;1.53;;
54545;SDS011;40444;45.184;9.850;2023-04-01T22:47:30;3.00;;;1.77;;
54545;SDS011;40444;45.184;9.850;2023-04-01T22:50:24;2.75;;;1.73;;
54545;SDS011;40444;45.184;9.850;2023-04-01T22:56:12;2.70;;;1.30;;
54545;SDS011;40444;45.184;9.850;2023-04-01T22:58:49;3.13;;;1.50;;
54545;SDS011;40444;45.184;9.850;2023-04-01T23:01:25;2.20;;;1.58;;
54545;SDS011;40444;45.184;9.850;2023-04-01T23:04:00;2.80;;;1.60;;
54545;SDS011;40444;45.184;9.850;2023-04-01T23:06:37;3.75;;;1.63;;
54545;SDS011;40444;45.184;9.850;2023-04-01T23:09:13;3.33;;;1.40;;
54545;SDS011;40444;45.184;9.850;2023-04-01T23:20:52;2.58;;;1.70;;
54545;SDS011;40444;45.184;9.850;2023-04-01T23:26:10;4.13;;;2.00;;
54545;SDS011;40444;45.184;9.850;2023-04-01T23:28:49;2.85;;;1.48;;
54545;SDS011;40444;45.184;9.850;2023-04-01T23:31:33;2.00;;;1.20;;
54545;SDS011;40444;45.184;9.850;2023-04-01T23:36:49;3.42;;;2.00;;
54545;SDS011;40444;45.184;9.850;2023-04-01T23:39:25;2.53;;;1.40;;
54545;SDS011;40444;45.184;9.850;2023-04-01T23:44:49;1.70;;;0.93;;
54545;SDS011;40444;45.184;9.850;2023-04-01T23:47:21;1.95;;;1.55;;
54545;SDS011;40444;45.184;9.850;2023-04-01T23:49:56;2.30;;;1.45;;
54545;SDS011;40444;45.184;9.850;2023-04-01T23:52:31;2.65;;;1.75;;
54545;SDS011;40444;45.184;9.850;2023-04-01T23:57:39;3.58;;;1.70;;
